Time;durP1;ratioP1;P1;durP2;ratioP2;P2;SDS_P1;SDS_P2;PMS_P1;PMS_P2;Temp;Humidity;BMP_temperature;BMP_pressure;BME280_temperature;BME280_humidity;BME280_pressure;Samples;Min_cycle;Max_cycle;Signal;HPM_P1;HPM_P2
2021/10/01 09:25:22;;;;;;;11.52;6.30;;;;;;;;;;7369708;19;132509;-14
2021/10/01 09:28:01;;;;;;;12.68;6.53;;;;;;;;;;7363917;19;153564;-15
2021/10/01 09:30:29;;;;;;;12.18;6.85;;;;;;;;;;7364753;19;162122;-13
2021/10/01 09:33:12;;;;;;;12.20;6.32;;;;;;;;;;7363504;19;162510;-12
2021/10/01 09:35:42;;;;;;;10.95;6.05;;;;;;;;;;7364761;19;154111;-15
2021/10/01 09:38:15;;;;;;;10.05;5.70;;;;;;;;;;7363596;19;153836;-13
2021/10/01 09:40:45;;;;;;;12.27;6.18;;;;;;;;;;7364514;19;161892;-14
2021/10/01 09:43:30;;;;;;;12.55;5.30;;;;;;;;;;7363410;19;162316;-16
2021/10/01 09:46:07;;;;;;;16.80;6.63;;;;;;;;;;7363296;19;154154;-14
2021/10/01 09:48:37;;;;;;;13.90;6.05;;;;;;;;;;7363940;19;154022;-14
2021/10/01 09:51:17;;;;;;;13.10;5.95;;;;;;;;;;7363693;19;161933;-13
2021/10/01 09:53:48;;;;;;;14.60;5.82;;;;;;;;;;7362473;19;162575;-14
2021/10/01 09:56:27;;;;;;;22.38;6.40;;;;;;;;;;7364841;19;153898;-16
2021/10/01 09:59:10;;;;;;;14.55;5.32;;;;;;;;;;7363840;19;153870;-17
2021/10/01 10:01:58;;;;;;;16.25;5.60;;;;;;;;;;7363441;19;161671;-15
2021/10/01 10:04:38;;;;;;;13.95;5.53;;;;;;;;;;7360206;19;162375;-16
2021/10/01 10:07:12;;;;;;;14.40;5.40;;;;;;;;;;7362720;19;154156;-15
2021/10/01 10:09:43;;;;;;;12.25;5.15;;;;;;;;;;7360919;19;153666;-14
2021/10/01 10:12:14;;;;;;;11.88;5.57;;;;;;;;;;7364872;19;161909;-15
2021/10/01 10:14:54;;;;;;;16.35;5.65;;;;;;;;;;7362062;19;162742;-16
2021/10/01 10:17:27;;;;;;;15.70;5.28;;;;;;;;;;7363347;19;154045;-14
2021/10/01 10:20:00;;;;;;;10.93;5.18;;;;;;;;;;7363617;19;153599;-16
2021/10/01 10:22:31;;;;;;;15.43;5.03;;;;;;;;;;7362942;19;161970;-16
2021/10/01 10:24:58;;;;;;;12.40;5.32;;;;;;;;;;7343303;19;162272;-14
2021/10/01 10:27:27;;;;;;;10.95;5.22;;;;;;;;;;7334562;19;154205;-16
2021/10/01 10:29:57;;;;;;;13.93;5.90;;;;;;;;;;7333191;19;153873;-15
2021/10/01 10:32:31;;;;;;;13.82;5.20;;;;;;;;;;7333769;19;161940;-14
2021/10/01 10:35:07;;;;;;;11.75;5.35;;;;;;;;;;7333748;19;162052;-15
2021/10/01 10:37:44;;;;;;;11.18;5.30;;;;;;;;;;7334169;19;154005;-15
2021/10/01 10:40:20;;;;;;;11.23;4.85;;;;;;;;;;7332845;19;153757;-14
2021/10/01 10:42:50;;;;;;;10.88;4.78;;;;;;;;;;7333179;19;161806;-16
2021/10/01 10:45:20;;;;;;;12.85;5.07;;;;;;;;;;7332335;19;162418;-15
2021/10/01 10:48:07;;;;;;;8.50;4.95;;;;;;;;;;7333878;19;154012;-15
2021/10/01 10:50:40;;;;;;;9.43;4.63;;;;;;;;;;7333734;19;153652;-17
2021/10/01 10:53:18;;;;;;;7.72;4.72;;;;;;;;;;7332998;19;162295;-15
2021/10/01 10:55:53;;;;;;;10.18;4.78;;;;;;;;;;7333132;19;162524;-14
2021/10/01 10:58:22;;;;;;;10.05;5.35;;;;;;;;;;7333480;19;153969;-15
2021/10/01 11:00:55;;;;;;;8.27;5.00;;;;;;;;;;7332233;19;153897;-14
2021/10/01 11:03:27;;;;;;;9.77;5.03;;;;;;;;;;7331994;19;161793;-15
2021/10/01 11:06:11;;;;;;;10.50;5.22;;;;;;;;;;7332873;19;162444;-14
2021/10/01 11:08:42;;;;;;;8.27;4.13;;;;;;;;;;7333250;19;154162;-15
2021/10/01 11:11:32;;;;;;;8.70;4.72;;;;;;;;;;7332975;19;153514;-14
2021/10/01 11:14:15;;;;;;;9.30;4.45;;;;;;;;;;7332444;19;161843;-16
2021/10/01 11:16:45;;;;;;;9.20;4.22;;;;;;;;;;7332420;19;162398;-16
2021/10/01 11:19:13;;;;;;;12.77;5.00;;;;;;;;;;7332589;19;153954;-15
2021/10/01 11:21:43;;;;;;;10.30;4.68;;;;;;;;;;7337043;19;153643;-14
2021/10/01 11:24:14;;;;;;;8.95;5.07;;;;;;;;;;7330219;19;162050;-16
2021/10/01 11:26:43;;;;;;;6.38;4.60;;;;;;;;;;7332140;19;162366;-18
2021/10/01 11:29:33;;;;;;;9.48;4.65;;;;;;;;;;7332517;19;154039;-13
2021/10/01 11:32:23;;;;;;;11.20;4.57;;;;;;;;;;7332408;19;153309;-15
2021/10/01 11:34:57;;;;;;;12.65;4.70;;;;;;;;;;7331975;19;161927;-12
2021/10/01 11:37:36;;;;;;;9.27;4.72;;;;;;;;;;7328132;19;162536;-16
2021/10/01 11:40:04;;;;;;;7.88;3.90;;;;;;;;;;7332680;19;153934;-13
2021/10/01 11:42:36;;;;;;;9.00;5.00;;;;;;;;;;7331108;19;153507;-14
2021/10/01 11:45:17;;;;;;;11.03;4.53;;;;;;;;;;7328389;19;162561;-13
2021/10/01 11:47:53;;;;;;;9.13;4.50;;;;;;;;;;7330657;19;162221;-17
2021/10/01 11:50:32;;;;;;;10.15;4.15;;;;;;;;;;7329687;19;154109;-14
2021/10/01 11:53:02;;;;;;;12.40;4.47;;;;;;;;;;7330830;19;153587;-17
2021/10/01 11:55:35;;;;;;;10.15;4.88;;;;;;;;;;7330681;19;161995;-17
2021/10/01 11:58:15;;;;;;;11.68;4.20;;;;;;;;;;7330465;19;162500;-15
2021/10/01 12:00:43;;;;;;;6.32;3.72;;;;;;;;;;7330943;19;153931;-15
2021/10/01 12:03:13;;;;;;;9.25;4.43;;;;;;;;;;7329803;19;153539;-15
2021/10/01 12:05:49;;;;;;;5.65;4.10;;;;;;;;;;7329156;19;162107;-15
2021/10/01 12:08:21;;;;;;;9.23;4.43;;;;;;;;;;7330197;19;162291;-17
2021/10/01 12:10:54;;;;;;;10.57;4.43;;;;;;;;;;7330138;19;154366;-15
2021/10/01 12:13:33;;;;;;;9.45;4.35;;;;;;;;;;7330009;19;153718;-15
2021/10/01 12:16:09;;;;;;;9.60;4.18;;;;;;;;;;7329740;19;161763;-16
2021/10/01 12:18:39;;;;;;;8.10;3.83;;;;;;;;;;7329590;19;162516;-16
2021/10/01 12:21:12;;;;;;;8.82;3.92;;;;;;;;;;7328678;19;154302;-15
2021/10/01 12:23:55;;;;;;;6.82;3.95;;;;;;;;;;7328201;19;153778;-15
2021/10/01 12:26:27;;;;;;;7.53;4.35;;;;;;;;;;7329340;19;162011;-16
2021/10/01 12:28:55;;;;;;;9.38;4.30;;;;;;;;;;7328965;19;162278;-15
2021/10/01 12:31:29;;;;;;;7.97;3.92;;;;;;;;;;7328418;19;153896;-15
2021/10/01 12:33:59;;;;;;;8.30;3.70;;;;;;;;;;7328886;19;153701;-16
2021/10/01 12:36:29;;;;;;;15.50;5.00;;;;;;;;;;7328875;19;161912;-22
2021/10/01 12:38:59;;;;;;;8.98;4.28;;;;;;;;;;7327565;19;162546;-14
2021/10/01 12:41:29;;;;;;;8.27;4.05;;;;;;;;;;7329245;19;153987;-17
2021/10/01 12:44:00;;;;;;;14.95;4.38;;;;;;;;;;7328721;19;153537;-16
2021/10/01 12:46:32;;;;;;;9.40;3.75;;;;;;;;;;7327705;19;162056;-16
2021/10/01 12:49:20;;;;;;;8.10;4.15;;;;;;;;;;7326941;19;162270;-15
2021/10/01 12:52:07;;;;;;;10.32;4.00;;;;;;;;;;7329084;19;154018;-15
2021/10/01 12:54:59;;;;;;;6.68;4.07;;;;;;;;;;7329324;19;155014;-15
2021/10/01 12:57:45;;;;;;;7.70;3.90;;;;;;;;;;7328542;19;162093;-15
2021/10/01 13:00:16;;;;;;;7.43;3.95;;;;;;;;;;7328306;19;162271;-15
2021/10/01 13:03:00;;;;;;;6.95;4.13;;;;;;;;;;7328828;19;153942;-16
2021/10/01 13:05:30;;;;;;;11.45;4.30;;;;;;;;;;7323044;19;153587;-16
2021/10/01 13:07:58;;;;;;;7.78;3.85;;;;;;;;;;7328703;19;161971;-16
2021/10/01 13:11:05;;;;;;;8.10;4.32;;;;;;;;;;7326089;19;162770;-14
2021/10/01 13:13:36;;;;;;;9.63;4.25;;;;;;;;;;7324512;19;154116;-16
2021/10/01 13:16:13;;;;;;;8.02;4.47;;;;;;;;;;7323772;19;153493;-15
2021/10/01 13:18:42;;;;;;;11.65;3.92;;;;;;;;;;7326456;19;162523;-16
2021/10/01 13:21:23;;;;;;;9.52;4.35;;;;;;;;;;7329863;19;162446;-16
2021/10/01 13:23:59;;;;;;;9.32;4.10;;;;;;;;;;7324910;19;154076;-17
2021/10/01 13:26:28;;;;;;;7.45;3.95;;;;;;;;;;7328298;19;153579;-16
2021/10/01 13:29:05;;;;;;;9.88;4.15;;;;;;;;;;7330856;19;162094;-16
2021/10/01 13:31:43;;;;;;;12.25;4.88;;;;;;;;;;7328358;19;162549;-16
2021/10/01 13:34:12;;;;;;;10.30;4.20;;;;;;;;;;7328935;19;154449;-16
2021/10/01 13:36:41;;;;;;;8.52;4.15;;;;;;;;;;7328701;19;153471;-15
2021/10/01 13:39:09;;;;;;;5.53;4.13;;;;;;;;;;7328463;19;161822;-16
2021/10/01 13:41:38;;;;;;;9.40;4.35;;;;;;;;;;7328247;19;162707;-17
2021/10/01 13:44:07;;;;;;;10.77;4.45;;;;;;;;;;7328277;19;154159;-17
2021/10/01 13:46:35;;;;;;;8.60;4.15;;;;;;;;;;7327274;19;153622;-16
2021/10/01 13:49:03;;;;;;;10.02;4.10;;;;;;;;;;7327874;19;161848;-16
2021/10/01 13:51:31;;;;;;;7.38;4.10;;;;;;;;;;7327818;19;162287;-15
2021/10/01 13:53:59;;;;;;;8.88;4.38;;;;;;;;;;7328313;19;154149;-15
2021/10/01 13:56:27;;;;;;;8.13;4.20;;;;;;;;;;7328077;19;153797;-13
2021/10/01 13:58:55;;;;;;;6.93;4.15;;;;;;;;;;7327954;19;161825;-13
2021/10/01 14:01:23;;;;;;;6.95;4.70;;;;;;;;;;7334243;19;162591;-16
2021/10/01 14:03:53;;;;;;;10.25;4.05;;;;;;;;;;7335138;19;154275;-15
2021/10/01 14:06:21;;;;;;;7.70;4.25;;;;;;;;;;7332403;19;153416;-14
2021/10/01 14:08:50;;;;;;;6.72;4.15;;;;;;;;;;7333227;19;162119;-15
2021/10/01 14:11:18;;;;;;;8.20;4.10;;;;;;;;;;7333368;19;162485;-15
2021/10/01 14:13:46;;;;;;;8.02;4.18;;;;;;;;;;7334716;19;154044;-15
2021/10/01 14:16:13;;;;;;;7.82;3.40;;;;;;;;;;7333620;19;153665;-16
2021/10/01 14:18:41;;;;;;;6.90;3.60;;;;;;;;;;7334420;19;161930;-15
2021/10/01 14:21:10;;;;;;;7.30;3.92;;;;;;;;;;7334086;19;162426;-14
2021/10/01 14:23:38;;;;;;;7.53;4.20;;;;;;;;;;7332944;19;154077;-15
2021/10/01 14:26:06;;;;;;;8.82;3.88;;;;;;;;;;7332340;19;153336;-16
2021/10/01 14:28:34;;;;;;;7.45;3.65;;;;;;;;;;7334045;19;161963;-16
2021/10/01 14:31:02;;;;;;;7.47;3.78;;;;;;;;;;7332808;19;162580;-16
2021/10/01 14:33:30;;;;;;;7.45;3.88;;;;;;;;;;7334327;19;153929;-14
2021/10/01 14:35:58;;;;;;;5.25;3.63;;;;;;;;;;7333898;19;153846;-14
2021/10/01 14:38:26;;;;;;;7.22;3.80;;;;;;;;;;7333622;19;161906;-16
2021/10/01 14:40:54;;;;;;;8.80;4.28;;;;;;;;;;7333540;19;162373;-17
2021/10/01 14:43:32;;;;;;;6.97;3.78;;;;;;;;;;7333757;19;154070;-16
2021/10/01 14:46:00;;;;;;;6.15;3.40;;;;;;;;;;7331715;19;153518;-14
2021/10/01 14:48:29;;;;;;;6.40;3.50;;;;;;;;;;7333285;19;161923;-15
2021/10/01 14:50:58;;;;;;;5.90;3.65;;;;;;;;;;7333337;19;162551;-15
2021/10/01 14:53:26;;;;;;;5.10;3.45;;;;;;;;;;7333665;19;154368;-17
2021/10/01 14:55:54;;;;;;;4.43;3.40;;;;;;;;;;7333706;19;153592;-14
2021/10/01 14:58:23;;;;;;;4.45;3.30;;;;;;;;;;7333168;19;161919;-15
2021/10/01 15:00:52;;;;;;;6.05;3.75;;;;;;;;;;7333340;19;162440;-15
2021/10/01 15:03:19;;;;;;;5.50;3.40;;;;;;;;;;7333762;19;154085;-14
2021/10/01 15:05:49;;;;;;;3.63;3.10;;;;;;;;;;7332059;19;153847;-15
2021/10/01 15:08:17;;;;;;;7.00;3.72;;;;;;;;;;7331987;19;161887;-15
2021/10/01 15:10:46;;;;;;;4.65;3.00;;;;;;;;;;7332790;19;162442;-17
2021/10/01 15:13:14;;;;;;;7.88;3.33;;;;;;;;;;7333489;19;154470;-13
2021/10/01 15:15:43;;;;;;;5.68;3.40;;;;;;;;;;7333213;19;153591;-14
2021/10/01 15:18:12;;;;;;;4.65;3.30;;;;;;;;;;7332728;19;162327;-15
2021/10/01 15:20:41;;;;;;;7.03;3.60;;;;;;;;;;7331623;19;162258;-14
2021/10/01 15:23:10;;;;;;;6.20;3.20;;;;;;;;;;7331613;19;154015;-16
2021/10/01 15:25:39;;;;;;;5.78;3.85;;;;;;;;;;7330688;19;153539;-15
2021/10/01 15:28:08;;;;;;;5.15;3.10;;;;;;;;;;7332586;19;161910;-15
2021/10/01 15:30:37;;;;;;;8.40;3.17;;;;;;;;;;7332310;19;162508;-18
2021/10/01 15:33:07;;;;;;;3.75;2.88;;;;;;;;;;7332747;19;153963;-14
2021/10/01 15:35:35;;;;;;;6.75;3.53;;;;;;;;;;7331585;19;153696;-15
2021/10/01 15:38:04;;;;;;;6.90;3.63;;;;;;;;;;7332384;19;161894;-16
2021/10/01 15:40:35;;;;;;;4.85;2.92;;;;;;;;;;7332237;19;162371;-15
2021/10/01 15:43:03;;;;;;;5.97;3.38;;;;;;;;;;7331024;19;154044;-17
2021/10/01 15:45:31;;;;;;;6.10;3.47;;;;;;;;;;7330115;19;153611;-15
2021/10/01 15:47:59;;;;;;;5.30;3.28;;;;;;;;;;7332012;19;161952;-17
2021/10/01 15:50:28;;;;;;;4.63;3.17;;;;;;;;;;7331994;19;162531;-16
2021/10/01 15:52:56;;;;;;;4.03;3.22;;;;;;;;;;7332242;19;154091;-14
2021/10/01 15:55:25;;;;;;;5.68;3.30;;;;;;;;;;7331947;19;153569;-16
2021/10/01 15:57:53;;;;;;;4.72;2.92;;;;;;;;;;7330782;19;161799;-14
2021/10/01 16:00:22;;;;;;;6.43;3.05;;;;;;;;;;7331931;19;162285;-15
2021/10/01 16:02:50;;;;;;;6.50;3.60;;;;;;;;;;7335569;19;154177;-15
2021/10/01 16:05:23;;;;;;;5.28;2.92;;;;;;;;;;7332933;19;153561;-16
2021/10/01 16:07:52;;;;;;;;;;;;;;;;;;7335704;19;161909;-13
2021/10/01 16:10:21;;;;;;;3.83;2.58;;;;;;;;;;7334813;19;163149;-14
2021/10/01 16:12:51;;;;;;;5.78;2.72;;;;;;;;;;7335085;19;153995;-16
2021/10/01 16:15:20;;;;;;;3.88;2.42;;;;;;;;;;7334675;19;153544;-14
2021/10/01 16:17:50;;;;;;;4.10;2.90;;;;;;;;;;7332363;19;161995;-15
2021/10/01 16:20:22;;;;;;;5.25;2.65;;;;;;;;;;7326176;19;163061;-15
2021/10/01 16:22:51;;;;;;;4.05;3.03;;;;;;;;;;7325466;19;154204;-15
2021/10/01 16:25:24;;;;;;;4.25;2.40;;;;;;;;;;7329610;19;153578;-14
2021/10/01 16:27:54;;;;;;;6.00;2.80;;;;;;;;;;7330842;19;161883;-14
2021/10/01 16:30:23;;;;;;;4.97;2.35;;;;;;;;;;7329500;19;162525;-15
2021/10/01 16:32:52;;;;;;;7.72;2.78;;;;;;;;;;7331240;19;153823;-16
2021/10/01 16:35:20;;;;;;;6.22;2.58;;;;;;;;;;7330919;19;154212;-15
2021/10/01 16:37:48;;;;;;;5.60;2.60;;;;;;;;;;7330578;19;162023;-14
2021/10/01 16:40:17;;;;;;;4.72;2.58;;;;;;;;;;7330409;19;162291;-15
2021/10/01 16:42:45;;;;;;;5.90;2.63;;;;;;;;;;7330771;19;153977;-15
2021/10/01 16:45:13;;;;;;;7.40;2.47;;;;;;;;;;7333132;19;153620;-15
2021/10/01 16:47:41;;;;;;;8.85;2.97;;;;;;;;;;7330113;19;162056;-14
2021/10/01 16:50:11;;;;;;;8.98;2.70;;;;;;;;;;7331000;19;162462;-14
2021/10/01 16:52:40;;;;;;;4.70;2.67;;;;;;;;;;7332965;19;154343;-15
2021/10/01 16:55:11;;;;;;;10.05;2.97;;;;;;;;;;7333673;19;153586;-14
2021/10/01 16:57:39;;;;;;;6.43;2.97;;;;;;;;;;7332665;19;161602;-17
2021/10/01 17:00:13;;;;;;;9.40;3.15;;;;;;;;;;7332606;19;162561;-16
2021/10/01 17:02:41;;;;;;;6.53;3.17;;;;;;;;;;7331791;19;154038;-13
2021/10/01 17:05:09;;;;;;;7.05;3.28;;;;;;;;;;7333344;19;153595;-16
2021/10/01 17:07:37;;;;;;;7.18;3.17;;;;;;;;;;7332736;19;161982;-15
2021/10/01 17:10:06;;;;;;;5.88;2.92;;;;;;;;;;7332210;19;162417;-16
2021/10/01 17:12:34;;;;;;;10.30;2.78;;;;;;;;;;7332771;19;154087;-15
2021/10/01 17:15:06;;;;;;;6.00;2.78;;;;;;;;;;7332843;19;153548;-16
2021/10/01 17:17:34;;;;;;;5.70;2.80;;;;;;;;;;7331205;19;161871;-16
2021/10/01 17:20:02;;;;;;;4.00;2.65;;;;;;;;;;7331257;19;162448;-16
2021/10/01 17:22:30;;;;;;;3.95;2.65;;;;;;;;;;7332555;19;154058;-13
2021/10/01 17:24:58;;;;;;;6.13;3.17;;;;;;;;;;7329024;19;153623;-15
2021/10/01 17:27:26;;;;;;;4.97;2.88;;;;;;;;;;7329416;19;162296;-15
2021/10/01 17:29:54;;;;;;;6.97;3.20;;;;;;;;;;7330645;19;162530;-14
2021/10/01 17:32:22;;;;;;;5.97;2.95;;;;;;;;;;7332600;19;153988;-14
2021/10/01 17:34:50;;;;;;;7.25;2.97;;;;;;;;;;7334483;19;153702;-16
2021/10/01 17:37:21;;;;;;;8.15;2.90;;;;;;;;;;7336896;19;161816;-16
2021/10/01 17:39:49;;;;;;;8.10;3.20;;;;;;;;;;7338557;19;162052;-15
2021/10/01 17:42:17;;;;;;;6.65;3.97;;;;;;;;;;7339730;19;154062;-13
2021/10/01 17:44:45;;;;;;;7.20;3.40;;;;;;;;;;7336881;19;153529;-15
2021/10/01 17:47:13;;;;;;;8.30;2.97;;;;;;;;;;7333501;19;161825;-14
2021/10/01 17:49:41;;;;;;;5.85;3.08;;;;;;;;;;7335194;19;162315;-15
2021/10/01 17:52:09;;;;;;;6.28;2.72;;;;;;;;;;7334495;19;154285;-14
2021/10/01 17:54:38;;;;;;;7.05;2.78;;;;;;;;;;7335542;19;153881;-16
2021/10/01 17:57:05;;;;;;;6.70;2.88;;;;;;;;;;7334865;19;161780;-15
2021/10/01 17:59:33;;;;;;;5.40;2.65;;;;;;;;;;7335130;19;162425;-15
2021/10/01 18:02:02;;;;;;;7.00;2.63;;;;;;;;;;7335004;19;154299;-14
2021/10/01 18:04:29;;;;;;;6.63;2.58;;;;;;;;;;7335094;19;153590;-14
2021/10/01 18:06:57;;;;;;;5.40;2.63;;;;;;;;;;7333405;19;161979;-15
2021/10/01 18:09:26;;;;;;;11.98;3.30;;;;;;;;;;7334215;19;162493;-14
2021/10/01 18:11:54;;;;;;;7.65;3.40;;;;;;;;;;7334931;19;153992;-14
2021/10/01 18:14:22;;;;;;;10.88;4.10;;;;;;;;;;7334873;19;153819;-14
2021/10/01 18:16:50;;;;;;;7.55;3.78;;;;;;;;;;7334386;19;161805;-12
2021/10/01 18:19:18;;;;;;;7.60;3.22;;;;;;;;;;7334347;19;162465;-13
2021/10/01 18:21:46;;;;;;;10.35;3.40;;;;;;;;;;7334611;19;154100;-15
2021/10/01 18:24:16;;;;;;;8.57;3.45;;;;;;;;;;7333050;19;153838;-13
2021/10/01 18:26:44;;;;;;;6.32;3.90;;;;;;;;;;7332881;19;162424;-13
2021/10/01 18:29:12;;;;;;;7.43;3.17;;;;;;;;;;7332728;19;162408;-13
2021/10/01 18:31:40;;;;;;;11.38;3.65;;;;;;;;;;7334304;19;153988;-15
2021/10/01 18:34:08;;;;;;;8.18;4.18;;;;;;;;;;7334192;19;153891;-13
2021/10/01 18:36:36;;;;;;;10.15;4.38;;;;;;;;;;7334206;19;162236;-14
2021/10/01 18:39:04;;;;;;;7.13;3.40;;;;;;;;;;7336769;19;162240;-16
2021/10/01 18:41:35;;;;;;;7.50;3.40;;;;;;;;;;7337102;19;154051;-15
2021/10/01 18:44:03;;;;;;;7.53;3.13;;;;;;;;;;7336478;19;153481;-15
2021/10/01 18:46:32;;;;;;;7.72;3.83;;;;;;;;;;7334910;19;162090;-15
2021/10/01 18:49:00;;;;;;;8.55;3.45;;;;;;;;;;7336024;19;162463;-15
2021/10/01 18:51:28;;;;;;;12.60;3.80;;;;;;;;;;7336227;19;154176;-13
2021/10/01 18:53:56;;;;;;;8.85;3.45;;;;;;;;;;7336490;19;153666;-13
2021/10/01 18:56:27;;;;;;;7.88;3.50;;;;;;;;;;7335377;19;161918;-14
2021/10/01 18:58:55;;;;;;;7.07;3.63;;;;;;;;;;7335109;19;162295;-14
2021/10/01 19:01:23;;;;;;;7.60;3.00;;;;;;;;;;7335914;19;154036;-15
2021/10/01 19:03:51;;;;;;;6.78;3.22;;;;;;;;;;7333783;19;153524;-15
2021/10/01 19:06:19;;;;;;;8.52;4.03;;;;;;;;;;7335821;19;162138;-16
2021/10/01 19:08:47;;;;;;;5.95;3.38;;;;;;;;;;7335037;19;162689;-14
2021/10/01 19:11:15;;;;;;;6.07;3.17;;;;;;;;;;7337108;19;154276;-16
2021/10/01 19:13:44;;;;;;;10.38;4.25;;;;;;;;;;7336102;19;153760;-17
2021/10/01 19:16:12;;;;;;;6.57;3.35;;;;;;;;;;7335146;19;161936;-15
2021/10/01 19:18:41;;;;;;;9.35;3.35;;;;;;;;;;7335914;19;162334;-17
2021/10/01 19:21:14;;;;;;;9.38;3.63;;;;;;;;;;7335458;19;153979;-15
2021/10/01 19:27:12;;;;;;;8.38;4.50;;;;;;;;;;7333170;19;162388;-16
2021/10/01 19:32:31;;;;;;;13.48;5.28;;;;;;;;;;7332481;19;154220;-16
2021/10/01 19:35:00;;;;;;;9.60;4.40;;;;;;;;;;7334835;19;153598;-15
2021/10/01 19:37:28;;;;;;;9.90;4.55;;;;;;;;;;7335568;19;162144;-14
2021/10/01 19:40:02;;;;;;;9.18;4.90;;;;;;;;;;7333050;19;162374;-16
2021/10/01 19:42:31;;;;;;;11.07;5.63;;;;;;;;;;7335738;19;154252;-15
2021/10/01 19:45:08;;;;;;;9.80;5.07;;;;;;;;;;7334657;19;153533;-13
2021/10/01 19:47:37;;;;;;;10.50;4.93;;;;;;;;;;7332428;19;162363;-16
2021/10/01 19:50:09;;;;;;;11.10;4.97;;;;;;;;;;7332790;19;162560;-16
2021/10/01 19:52:38;;;;;;;12.63;5.63;;;;;;;;;;7334760;19;154137;-16
2021/10/01 19:55:09;;;;;;;7.60;4.68;;;;;;;;;;7335155;19;153613;-17
2021/10/01 19:57:39;;;;;;;9.05;4.97;;;;;;;;;;7330599;19;161878;-16
2021/10/01 20:00:14;;;;;;;9.32;5.03;;;;;;;;;;7334692;19;162579;-15
2021/10/01 20:02:51;;;;;;;10.52;5.72;;;;;;;;;;7326431;19;154092;-16
2021/10/01 20:05:21;;;;;;;11.35;5.85;;;;;;;;;;7328952;19;153379;-14
2021/10/01 20:07:50;;;;;;;11.25;5.70;;;;;;;;;;7329333;19;161825;-16
2021/10/01 20:10:20;;;;;;;11.07;4.70;;;;;;;;;;7331134;19;162322;-16
2021/10/01 20:12:49;;;;;;;16.35;5.95;;;;;;;;;;7331400;19;154014;-13
2021/10/01 20:15:20;;;;;;;47.67;20.77;;;;;;;;;;7331552;19;153818;-14
2021/10/01 20:17:59;;;;;;;49.75;28.27;;;;;;;;;;7330681;19;162121;-14
2021/10/01 20:23:57;;;;;;;90.70;48.25;;;;;;;;;;7327029;19;154389;-17
2021/10/01 20:48:37;;;;;;;71.15;35.83;;;;;;;;;;7330726;19;153560;-14
2021/10/01 20:51:06;;;;;;;72.45;38.58;;;;;;;;;;7331625;19;161892;-14
2021/10/01 20:53:34;;;;;;;68.28;38.92;;;;;;;;;;7332983;19;162387;-15
2021/10/01 20:56:03;;;;;;;64.40;34.25;;;;;;;;;;7333431;19;153890;-15
2021/10/01 20:59:20;;;;;;;57.20;32.88;;;;;;;;;;7331856;19;153871;-14
2021/10/01 21:45:32;;;;;;;41.13;22.33;;;;;;;;;;7326560;19;162277;-13
2021/10/01 21:48:10;;;;;;;40.33;21.95;;;;;;;;;;7326758;19;162440;-14
2021/10/01 21:50:38;;;;;;;41.50;22.25;;;;;;;;;;7327307;19;154220;-13
2021/10/01 21:53:07;;;;;;;39.97;21.70;;;;;;;;;;7327987;19;153448;-13
2021/10/01 21:55:38;;;;;;;34.45;19.75;;;;;;;;;;7327792;19;161808;-14
2021/10/01 21:58:06;;;;;;;37.83;20.25;;;;;;;;;;7327737;19;162187;-12
2021/10/01 22:01:05;;;;;;;33.88;19.50;;;;;;;;;;7328206;19;153947;-13
2021/10/01 22:09:11;;;;;;;38.63;19.13;;;;;;;;;;7324994;19;162279;-14
2021/10/01 22:12:33;;;;;;;39.13;20.70;;;;;;;;;;7327624;19;154097;-15
2021/10/01 22:20:13;;;;;;;35.03;18.48;;;;;;;;;;7326538;19;162360;-14
2021/10/01 22:22:44;;;;;;;31.42;18.40;;;;;;;;;;7334182;19;154056;-14
2021/10/01 22:25:14;;;;;;;35.45;18.75;;;;;;;;;;7331244;19;153989;-14
2021/10/01 22:27:46;;;;;;;38.33;19.52;;;;;;;;;;7333051;19;161967;-14
2021/10/01 22:30:16;;;;;;;33.78;18.52;;;;;;;;;;7333784;19;162294;-15
2021/10/01 22:32:45;;;;;;;38.50;20.45;;;;;;;;;;7334010;19;154000;-15
2021/10/01 22:35:19;;;;;;;35.63;18.92;;;;;;;;;;7333635;19;153446;-15
2021/10/01 22:37:49;;;;;;;37.75;19.20;;;;;;;;;;7332395;19;161787;-15
2021/10/01 22:40:29;;;;;;;37.25;18.40;;;;;;;;;;7333207;19;162890;-13
2021/10/01 22:43:01;;;;;;;34.25;16.88;;;;;;;;;;7333319;19;154143;-16
2021/10/01 22:45:29;;;;;;;36.78;17.98;;;;;;;;;;7333386;19;153646;-14
2021/10/01 22:48:15;;;;;;;34.17;17.83;;;;;;;;;;7332056;19;161707;-14
2021/10/01 22:50:49;;;;;;;35.47;17.80;;;;;;;;;;7333197;19;162400;-15
2021/10/01 22:53:18;;;;;;;33.53;17.25;;;;;;;;;;7333288;19;154250;-16
2021/10/01 22:55:48;;;;;;;31.88;16.88;;;;;;;;;;7333320;19;153597;-15
2021/10/01 22:58:18;;;;;;;28.33;15.15;;;;;;;;;;7332750;19;161927;-13
2021/10/01 23:00:49;;;;;;;34.10;16.15;;;;;;;;;;7332890;19;162789;-14
2021/10/01 23:03:19;;;;;;;34.35;16.70;;;;;;;;;;7333227;19;153946;-12
2021/10/01 23:05:47;;;;;;;30.30;15.52;;;;;;;;;;7333123;19;153607;-15
2021/10/01 23:08:16;;;;;;;25.88;15.43;;;;;;;;;;7330401;19;161825;-14
2021/10/01 23:52:04;;;;;;;29.05;11.80;;;;;;;;;;7330089;19;161935;-14
